Terminal Aerodrome Forecast
Issued by NWS

Home | Current Version | Previous Version | Graphics & Text | Print | Product List | Glossary On
Versions: 1 2 3 4 5 6 7 8 9 10 11 12 13 14 15 16 17 18 19 20 21 22
000
FTUS42 KMHX 181100
TAFISO
TAF
KISO 181120Z 1812/1912 02005KT 5SM BR SCT080
      TEMPO 1812/1813 3SM BR
     FM181400 04005KT P6SM SCT040
     FM181900 04005KT P6SM SCT050
     FM182300 04005KT P6SM SKC
      AMD LTD TO CLD VIS AND WIND=

USA.gov is the U.S. government's official web portal to all federal, state and local government web resources and services.